Flight Number: EUR1459 Duration: 2:15
Departure: Krakow Balice (EPKK) at 21:30 Distance: 761 Nm
Arrival: Gatwick Airport (EGKK) at 23:45 Equipment: B737

Weather Information
Krakow, Poland (EPKK) 50-05N 019-48E 237M Jan 21, 2019 - 07:00 AM EST / 2019.01.21 1200 UTC
Wind: Variable at 1 MPH (1 KT):0
Visibility: 1 mile(s):0
Sky conditions: overcast Weather: mist Temperature: 19 F (-7 C) Dew Point: 17 F (-8 C) Relative Humidity: 92% Pressure (altimeter): 30.18 in. Hg (1022 hPa)
ob: EPKK 211200Z VRB01KT 2200 BR BKN004 OVC006 M07/M08 Q1022 R25/41//95 cycle: 12
Sunrise: 06:32 Sunset: 15:12 (UTC)

London / Gatwick Airport, United Kingdom (EGKK) 51-09N 000-11W 0M Jan 21, 2019 - 06:50 AM EST / 2019.01.21 1150 UTC
Wind: from the SW (230 degrees) at 3 MPH (3 KT):0
Visibility: 2 mile(s):0
Sky conditions: mostly clear Weather: haze Temperature: 37 F (3 C) Dew Point: 33 F (1 C) Relative Humidity: 86% Pressure (altimeter): 30.21 in. Hg (1023 hPa)
ob: EGKK 211150Z 23003KT 4000 HZ FEW032 03/01 Q1023 cycle: 12
Sunrise: 07:56 Sunset: 16:27 (UTC)

TAF:2019/01/21 12:06 TAF EGKK 211057Z 2112/2218 20006KT 1400 BR FEW001 SCT030 BECMG 2112/2115 9999 NSW PROB40 2112/2113 BKN001 PROB40 TEMPO 2115/2122 6000 TEMPO 2122/2205 6000 -RADZ BKN012 PROB30 TEMPO 2200/2204 19015G25KT 4000 RA BKN007 BECMG 2203/2206 28010KT TEMPO 2213/2218 6000 -SHRA BKN010 PROB30 TEMPO 2213/2218 3000 SHRA -SHRASN BKN005

Previous Pireps for this route
Date Aircraft Flight time Fuel used Landing rate On time
2016-03-07B73702.1320321-166Yes
(pireps marked green are flown by you)

Route map